sensor_id;sensor_type;location;lat;lon;timestamp;pressure;altitude;pressure_sealevel;temperature;humidity
33163;BME280;29282;45.656;11.302;2023-04-25T00:02:09;97715.09;;;18.32;56.62
33163;BME280;29282;45.656;11.302;2023-04-25T00:04:34;97712.69;;;18.30;56.50
33163;BME280;29282;45.656;11.302;2023-04-25T00:07:00;97714.31;;;18.31;56.55
33163;BME280;29282;45.656;11.302;2023-04-25T00:09:29;97717.38;;;18.30;56.35
33163;BME280;29282;45.656;11.302;2023-04-25T00:11:55;97709.94;;;18.30;56.51
33163;BME280;29282;45.656;11.302;2023-04-25T00:14:20;97714.63;;;18.30;56.55
33163;BME280;29282;45.656;11.302;2023-04-25T00:16:46;97723.66;;;18.30;56.53
33163;BME280;29282;45.656;11.302;2023-04-25T00:19:11;97722.84;;;18.30;56.40
33163;BME280;29282;45.656;11.302;2023-04-25T00:21:38;97716.25;;;18.31;56.49
33163;BME280;29282;45.656;11.302;2023-04-25T00:24:06;97710.31;;;18.29;56.32
33163;BME280;29282;45.656;11.302;2023-04-25T00:26:33;97709.16;;;18.30;56.33
33163;BME280;29282;45.656;11.302;2023-04-25T00:28:59;97698.19;;;18.30;56.26
33163;BME280;29282;45.656;11.302;2023-04-25T00:31:24;97687.56;;;18.28;56.47
33163;BME280;29282;45.656;11.302;2023-04-25T00:33:50;97690.31;;;18.28;56.45
33163;BME280;29282;45.656;11.302;2023-04-25T00:36:15;97696.91;;;18.27;56.36
33163;BME280;29282;45.656;11.302;2023-04-25T00:38:42;97689.53;;;18.28;56.48
33163;BME280;29282;45.656;11.302;2023-04-25T00:41:07;97691.44;;;18.27;56.24
33163;BME280;29282;45.656;11.302;2023-04-25T00:43:33;97690.31;;;18.28;56.33
33163;BME280;29282;45.656;11.302;2023-04-25T00:46:01;97685.94;;;18.27;56.34
33163;BME280;29282;45.656;11.302;2023-04-25T00:48:26;97691.44;;;18.27;56.18
33163;BME280;29282;45.656;11.302;2023-04-25T00:50:54;97685.94;;;18.27;56.41
33163;BME280;29282;45.656;11.302;2023-04-25T00:53:25;97678.88;;;18.26;56.27
33163;BME280;29282;45.656;11.302;2023-04-25T00:55:52;97673.41;;;18.26;56.22
33163;BME280;29282;45.656;11.302;2023-04-25T00:58:19;97670.66;;;18.26;56.13
33163;BME280;29282;45.656;11.302;2023-04-25T01:00:45;97665.16;;;18.26;56.21
33163;BME280;29282;45.656;11.302;2023-04-25T01:03:12;97665.16;;;18.26;56.31
33163;BME280;29282;45.656;11.302;2023-04-25T01:05:40;97659.69;;;18.26;56.13
33163;BME280;29282;45.656;11.302;2023-04-25T01:08:06;97662.44;;;18.26;56.13
33163;BME280;29282;45.656;11.302;2023-04-25T01:10:32;97655.34;;;18.25;56.29
33163;BME280;29282;45.656;11.302;2023-04-25T01:12:58;97662.44;;;18.26;56.16
33163;BME280;29282;45.656;11.302;2023-04-25T01:15:23;97652.63;;;18.25;56.05
33163;BME280;29282;45.656;11.302;2023-04-25T01:17:49;97656.16;;;18.26;56.19
33163;BME280;29282;45.656;11.302;2023-04-25T01:20:15;97649.88;;;18.25;56.23
33163;BME280;29282;45.656;11.302;2023-04-25T01:22:41;97649.88;;;18.25;56.13
33163;BME280;29282;45.656;11.302;2023-04-25T01:25:07;97652.63;;;18.25;56.10
33163;BME280;29282;45.656;11.302;2023-04-25T01:27:33;97652.63;;;18.25;56.04
33163;BME280;29282;45.656;11.302;2023-04-25T01:30:00;97645.53;;;18.24;56.17
33163;BME280;29282;45.656;11.302;2023-04-25T01:32:26;97652.63;;;18.25;56.04
33163;BME280;29282;45.656;11.302;2023-04-25T01:34:52;97649.88;;;18.25;55.98
33163;BME280;29282;45.656;11.302;2023-04-25T01:37:17;97647.13;;;18.25;56.14
33163;BME280;29282;45.656;11.302;2023-04-25T01:39:43;97636.50;;;18.24;56.09
33163;BME280;29282;45.656;11.302;2023-04-25T01:42:09;97634.91;;;18.23;56.02
33163;BME280;29282;45.656;11.302;2023-04-25T01:44:35;97632.16;;;18.23;56.14
33163;BME280;29282;45.656;11.302;2023-04-25T01:47:00;97635.72;;;18.23;55.98
33163;BME280;29282;45.656;11.302;2023-04-25T01:49:26;97628.63;;;18.22;56.12
33163;BME280;29282;45.656;11.302;2023-04-25T01:51:51;97630.22;;;18.23;55.96
33163;BME280;29282;45.656;11.302;2023-04-25T01:54:18;97624.75;;;18.23;55.97
33163;BME280;29282;45.656;11.302;2023-04-25T01:56:49;97623.16;;;18.22;56.08
33163;BME280;29282;45.656;11.302;2023-04-25T01:59:15;97617.66;;;18.22;56.02
33163;BME280;29282;45.656;11.302;2023-04-25T02:01:40;97621.19;;;18.23;55.95
33163;BME280;29282;45.656;11.302;2023-04-25T02:04:06;97624.75;;;18.23;55.95
33163;BME280;29282;45.656;11.302;2023-04-25T02:06:31;97616.09;;;18.21;56.02
33163;BME280;29282;45.656;11.302;2023-04-25T02:08:57;97610.59;;;18.21;56.08
33163;BME280;29282;45.656;11.302;2023-04-25T02:11:22;97610.59;;;18.21;56.00
33163;BME280;29282;45.656;11.302;2023-04-25T02:13:48;97609.78;;;18.21;55.92
33163;BME280;29282;45.656;11.302;2023-04-25T02:16:13;97609.78;;;18.21;55.87
33163;BME280;29282;45.656;11.302;2023-04-25T02:18:39;97605.91;;;18.22;56.03
33163;BME280;29282;45.656;11.302;2023-04-25T02:21:04;97605.13;;;18.21;55.94
33163;BME280;29282;45.656;11.302;2023-04-25T02:23:30;97599.63;;;18.21;55.93
33163;BME280;29282;45.656;11.302;2023-04-25T02:25:56;97587.03;;;18.20;55.97
33163;BME280;29282;45.656;11.302;2023-04-25T02:28:23;97592.53;;;18.20;55.95
33163;BME280;29282;45.656;11.302;2023-04-25T02:30:49;97589.78;;;18.20;55.82
33163;BME280;29282;45.656;11.302;2023-04-25T02:33:15;97587.03;;;18.20;55.80
33163;BME280;29282;45.656;11.302;2023-04-25T02:35:42;97591.75;;;18.20;55.79
33163;BME280;29282;45.656;11.302;2023-04-25T02:38:07;97590.94;;;18.19;55.78
33163;BME280;29282;45.656;11.302;2023-04-25T02:40:33;97593.69;;;18.19;56.00
33163;BME280;29282;45.656;11.302;2023-04-25T02:42:58;97588.19;;;18.19;55.78
33163;BME280;29282;45.656;11.302;2023-04-25T02:45:23;97586.25;;;18.20;55.89
33163;BME280;29282;45.656;11.302;2023-04-25T02:47:49;97576.09;;;18.20;55.69
33163;BME280;29282;45.656;11.302;2023-04-25T02:50:14;97571.38;;;18.21;55.93
33163;BME280;29282;45.656;11.302;2023-04-25T02:52:40;97567.53;;;18.22;55.83
33163;BME280;29282;45.656;11.302;2023-04-25T02:55:06;97567.53;;;18.22;55.72
33163;BME280;29282;45.656;11.302;2023-04-25T02:57:31;97555.41;;;18.23;55.74
33163;BME280;29282;45.656;11.302;2023-04-25T02:59:57;97559.72;;;18.24;55.76
33163;BME280;29282;45.656;11.302;2023-04-25T03:02:22;97560.88;;;18.23;55.58
33163;BME280;29282;45.656;11.302;2023-04-25T03:04:47;97558.94;;;18.23;55.54
33163;BME280;29282;45.656;11.302;2023-04-25T03:07:13;97558.59;;;18.25;55.61
33163;BME280;29282;45.656;11.302;2023-04-25T03:09:38;97553.91;;;18.25;55.48
33163;BME280;29282;45.656;11.302;2023-04-25T03:12:04;97550.38;;;18.25;55.67
33163;BME280;29282;45.656;11.302;2023-04-25T03:14:30;97553.91;;;18.25;55.69
33163;BME280;29282;45.656;11.302;2023-04-25T03:16:55;97550.38;;;18.25;55.56
33163;BME280;29282;45.656;11.302;2023-04-25T03:19:20;97549.22;;;18.26;55.54
33163;BME280;29282;45.656;11.302;2023-04-25T03:21:46;97551.16;;;18.25;55.65
33163;BME280;29282;45.656;11.302;2023-04-25T03:24:11;97547.63;;;18.25;55.67
33163;BME280;29282;45.656;11.302;2023-04-25T03:26:37;97546.81;;;18.24;55.64
33163;BME280;29282;45.656;11.302;2023-04-25T03:29:03;97547.63;;;18.25;55.67
33163;BME280;29282;45.656;11.302;2023-04-25T03:31:28;97549.56;;;18.24;55.64
33163;BME280;29282;45.656;11.302;2023-04-25T03:33:54;97559.72;;;18.24;55.63
33163;BME280;29282;45.656;11.302;2023-04-25T03:36:19;97573.44;;;18.24;55.81
33163;BME280;29282;45.656;11.302;2023-04-25T03:38:45;97586.34;;;18.23;55.59
33163;BME280;29282;45.656;11.302;2023-04-25T03:41:10;97596.16;;;18.24;55.48
33163;BME280;29282;45.656;11.302;2023-04-25T03:43:35;97605.22;;;18.25;55.51
33163;BME280;29282;45.656;11.302;2023-04-25T03:46:01;97609.88;;;18.24;55.46
33163;BME280;29282;45.656;11.302;2023-04-25T03:48:26;97610.69;;;18.25;55.41
33163;BME280;29282;45.656;11.302;2023-04-25T03:50:53;97612.28;;;18.26;55.51
33163;BME280;29282;45.656;11.302;2023-04-25T03:53:18;97611.03;;;18.23;55.46
33163;BME280;29282;45.656;11.302;2023-04-25T03:55:44;97612.97;;;18.23;55.47
33163;BME280;29282;45.656;11.302;2023-04-25T03:58:10;97612.19;;;18.22;55.52
33163;BME280;29282;45.656;11.302;2023-04-25T04:00:35;97619.25;;;18.23;55.55
33163;BME280;29282;45.656;11.302;2023-04-25T04:03:01;97618.47;;;18.23;55.52
33163;BME280;29282;45.656;11.302;2023-04-25T04:05:26;97620.03;;;18.24;55.52
33163;BME280;29282;45.656;11.302;2023-04-25T04:07:52;97635.72;;;18.23;55.50
33163;BME280;29282;45.656;11.302;2023-04-25T04:10:19;97645.88;;;18.23;55.43
33163;BME280;29282;45.656;11.302;2023-04-25T04:12:44;97651.38;;;18.23;55.48
33163;BME280;29282;45.656;11.302;2023-04-25T04:15:10;97642.34;;;18.22;55.55
33163;BME280;29282;45.656;11.302;2023-04-25T04:17:35;97629.44;;;18.23;55.42
33163;BME280;29282;45.656;11.302;2023-04-25T04:20:01;97608.97;;;18.20;55.56
33163;BME280;29282;45.656;11.302;2023-04-25T04:22:28;97590.59;;;18.21;55.49
33163;BME280;29282;45.656;11.302;2023-04-25T04:24:53;97595.28;;;18.20;55.36
33163;BME280;29282;45.656;11.302;2023-04-25T04:27:21;97612.50;;;18.21;55.32
33163;BME280;29282;45.656;11.302;2023-04-25T04:29:47;97616.09;;;18.21;55.43
33163;BME280;29282;45.656;11.302;2023-04-25T04:32:13;97625.44;;;18.20;55.47
33163;BME280;29282;45.656;11.302;2023-04-25T04:34:39;97630.91;;;18.20;55.28
33163;BME280;29282;45.656;11.302;2023-04-25T04:37:06;97636.41;;;18.20;55.38
33163;BME280;29282;45.656;11.302;2023-04-25T04:39:32;97633.66;;;18.20;55.45
33163;BME280;29282;45.656;11.302;2023-04-25T04:41:58;97636.41;;;18.20;55.43
33163;BME280;29282;45.656;11.302;2023-04-25T04:44:24;97636.41;;;18.20;55.51
33163;BME280;29282;45.656;11.302;2023-04-25T04:46:50;97630.91;;;18.20;55.51
33163;BME280;29282;45.656;11.302;2023-04-25T04:49:16;97638.34;;;18.20;55.57
33163;BME280;29282;45.656;11.302;2023-04-25T04:51:42;97646.56;;;18.20;55.36
33163;BME280;29282;45.656;11.302;2023-04-25T04:54:09;97647.38;;;18.20;55.48
33163;BME280;29282;45.656;11.302;2023-04-25T04:56:35;97645.78;;;18.19;55.46
33163;BME280;29282;45.656;11.302;2023-04-25T04:59:01;97643.03;;;18.19;55.42
33163;BME280;29282;45.656;11.302;2023-04-25T05:01:27;97634.81;;;18.19;55.44
33163;BME280;29282;45.656;11.302;2023-04-25T05:03:54;97643.03;;;18.19;55.41
33163;BME280;29282;45.656;11.302;2023-04-25T05:06:25;97641.09;;;18.20;55.21
33163;BME280;29282;45.656;11.302;2023-04-25T05:08:51;97650.09;;;18.20;55.38
33163;BME280;29282;45.656;11.302;2023-04-25T05:11:16;97646.25;;;18.21;55.31
33163;BME280;29282;45.656;11.302;2023-04-25T05:13:41;97648.16;;;18.21;55.23
33163;BME280;29282;45.656;11.302;2023-04-25T05:16:07;97650.91;;;18.21;55.37
33163;BME280;29282;45.656;11.302;2023-04-25T05:18:32;97647.38;;;18.20;55.25
33163;BME280;29282;45.656;11.302;2023-04-25T05:20:58;97648.16;;;18.21;55.23
33163;BME280;29282;45.656;11.302;2023-04-25T05:23:23;97661.06;;;18.20;55.25
33163;BME280;29282;45.656;11.302;2023-04-25T05:25:49;97663.81;;;18.20;55.32
33163;BME280;29282;45.656;11.302;2023-04-25T05:28:14;97670.09;;;18.21;55.38
33163;BME280;29282;45.656;11.302;2023-04-25T05:30:40;97672.03;;;18.20;55.24
33163;BME280;29282;45.656;11.302;2023-04-25T05:33:05;97672.03;;;18.20;55.24
33163;BME280;29282;45.656;11.302;2023-04-25T05:35:30;97691.25;;;18.20;55.22
33163;BME280;29282;45.656;11.302;2023-04-25T05:37:56;97697.50;;;18.21;55.28
33163;BME280;29282;45.656;11.302;2023-04-25T05:40:22;97695.94;;;18.20;55.33
33163;BME280;29282;45.656;11.302;2023-04-25T05:42:47;97704.94;;;18.20;55.35
33163;BME280;29282;45.656;11.302;2023-04-25T05:45:13;97701.41;;;18.20;55.30
33163;BME280;29282;45.656;11.302;2023-04-25T05:47:38;97704.16;;;18.20;55.14
33163;BME280;29282;45.656;11.302;2023-04-25T05:50:04;97695.13;;;18.19;55.27
33163;BME280;29282;45.656;11.302;2023-04-25T05:52:30;97700.63;;;18.19;55.17
33163;BME280;29282;45.656;11.302;2023-04-25T05:54:55;97699.47;;;18.20;55.28
33163;BME280;29282;45.656;11.302;2023-04-25T05:57:24;97697.50;;;18.21;55.20
33163;BME280;29282;45.656;11.302;2023-04-25T05:59:51;97706.56;;;18.21;55.02
33163;BME280;29282;45.656;11.302;2023-04-25T06:02:17;97712.03;;;18.21;55.04
33163;BME280;29282;45.656;11.302;2023-04-25T06:04:43;97714.78;;;18.21;54.92
33163;BME280;29282;45.656;11.302;2023-04-25T06:07:08;97721.06;;;18.22;55.08
33163;BME280;29282;45.656;11.302;2023-04-25T06:09:34;97708.16;;;18.22;54.91
33163;BME280;29282;45.656;11.302;2023-04-25T06:11:59;97730.53;;;18.24;54.95
33163;BME280;29282;45.656;11.302;2023-04-25T06:14:25;97728.94;;;18.23;55.03
33163;BME280;29282;45.656;11.302;2023-04-25T06:16:51;97722.66;;;18.23;54.92
33163;BME280;29282;45.656;11.302;2023-04-25T06:19:16;97730.09;;;18.22;54.80
33163;BME280;29282;45.656;11.302;2023-04-25T06:21:43;97728.94;;;18.23;54.88
33163;BME280;29282;45.656;11.302;2023-04-25T06:24:09;97725.41;;;18.23;54.88
33163;BME280;29282;45.656;11.302;2023-04-25T06:26:34;97728.13;;;18.23;54.90
33163;BME280;29282;45.656;11.302;2023-04-25T06:29:00;97733.63;;;18.23;55.09
33163;BME280;29282;45.656;11.302;2023-04-25T06:31:25;97730.09;;;18.22;55.07
33163;BME280;29282;45.656;11.302;2023-04-25T06:33:51;97726.19;;;18.23;54.87
33163;BME280;29282;45.656;11.302;2023-04-25T06:36:20;97730.19;;;18.26;54.87
33163;BME280;29282;45.656;11.302;2023-04-25T06:38:50;97732.25;;;18.29;54.90
33163;BME280;29282;45.656;11.302;2023-04-25T06:41:16;97734.63;;;18.30;54.89
33163;BME280;29282;45.656;11.302;2023-04-25T06:43:42;97724.81;;;18.29;54.96
33163;BME280;29282;45.656;11.302;2023-04-25T06:46:07;97712.34;;;18.32;54.84
33163;BME280;29282;45.656;11.302;2023-04-25T06:48:33;97718.28;;;18.34;54.69
33163;BME280;29282;45.656;11.302;2023-04-25T06:50:58;97712.00;;;18.34;54.97
33163;BME280;29282;45.656;11.302;2023-04-25T06:53:24;97715.19;;;18.36;55.00
33163;BME280;29282;45.656;11.302;2023-04-25T06:55:49;97709.72;;;18.36;54.79
33163;BME280;29282;45.656;11.302;2023-04-25T06:58:15;97701.47;;;18.36;54.86
33163;BME280;29282;45.656;11.302;2023-04-25T07:00:40;97697.94;;;18.35;54.90
33163;BME280;29282;45.656;11.302;2023-04-25T07:03:06;97699.19;;;18.38;54.78
33163;BME280;29282;45.656;11.302;2023-04-25T07:05:31;97690.16;;;18.37;54.81
33163;BME280;29282;45.656;11.302;2023-04-25T07:07:57;97693.34;;;18.39;54.59
33163;BME280;29282;45.656;11.302;2023-04-25T07:10:22;97693.34;;;18.39;54.94
33163;BME280;29282;45.656;11.302;2023-04-25T07:12:48;97696.88;;;18.40;54.76
33163;BME280;29282;45.656;11.302;2023-04-25T07:15:13;97692.56;;;18.39;54.94
33163;BME280;29282;45.656;11.302;2023-04-25T07:17:38;97699.31;;;18.41;54.96
33163;BME280;29282;45.656;11.302;2023-04-25T07:20:05;97681.69;;;18.42;54.81
33163;BME280;29282;45.656;11.302;2023-04-25T07:22:32;97674.25;;;18.43;54.81
33163;BME280;29282;45.656;11.302;2023-04-25T07:24:57;97678.59;;;18.44;54.88
33163;BME280;29282;45.656;11.302;2023-04-25T07:27:23;97683.28;;;18.43;54.83
33163;BME280;29282;45.656;11.302;2023-04-25T07:29:48;97677.78;;;18.43;54.63
33163;BME280;29282;45.656;11.302;2023-04-25T07:32:14;97678.16;;;18.42;54.71
33163;BME280;29282;45.656;11.302;2023-04-25T07:34:39;97671.50;;;18.43;54.66
33163;BME280;29282;45.656;11.302;2023-04-25T07:37:05;97670.34;;;18.44;54.69
33163;BME280;29282;45.656;11.302;2023-04-25T07:39:31;97667.19;;;18.42;54.74
33163;BME280;29282;45.656;11.302;2023-04-25T07:41:56;97664.88;;;18.44;54.95
33163;BME280;29282;45.656;11.302;2023-04-25T07:44:24;97675.03;;;18.43;55.12
33163;BME280;29282;45.656;11.302;2023-04-25T07:46:51;97667.63;;;18.44;55.30
33163;BME280;29282;45.656;11.302;2023-04-25T07:49:16;97642.94;;;18.44;55.22
33163;BME280;29282;45.656;11.302;2023-04-25T07:51:42;97612.75;;;18.44;55.22
33163;BME280;29282;45.656;11.302;2023-04-25T07:54:09;97592.53;;;18.48;55.18
33163;BME280;29282;45.656;11.302;2023-04-25T07:56:34;97603.81;;;18.47;55.19
33163;BME280;29282;45.656;11.302;2023-04-25T07:59:00;97616.41;;;18.48;55.20
33163;BME280;29282;45.656;11.302;2023-04-25T08:01:26;97624.63;;;18.48;55.47
33163;BME280;29282;45.656;11.302;2023-04-25T08:03:52;97619.94;;;18.48;55.42
33163;BME280;29282;45.656;11.302;2023-04-25T08:06:18;97622.31;;;18.50;55.55
33163;BME280;29282;45.656;11.302;2023-04-25T08:08:43;97626.69;;;18.51;55.43
33163;BME280;29282;45.656;11.302;2023-04-25T08:11:09;97618.47;;;18.51;55.64
33163;BME280;29282;45.656;11.302;2023-04-25T08:13:37;97619.25;;;18.51;55.46
33163;BME280;29282;45.656;11.302;2023-04-25T08:16:02;97616.84;;;18.50;55.61
33163;BME280;29282;45.656;11.302;2023-04-25T08:18:28;97606.66;;;18.50;55.62
33163;BME280;29282;45.656;11.302;2023-04-25T08:20:53;97620.03;;;18.52;55.86
33163;BME280;29282;45.656;11.302;2023-04-25T08:23:19;97614.56;;;18.52;55.76
33163;BME280;29282;45.656;11.302;2023-04-25T08:25:44;97624.72;;;18.51;55.86
33163;BME280;29282;45.656;11.302;2023-04-25T08:28:10;97624.03;;;18.54;55.76
33163;BME280;29282;45.656;11.302;2023-04-25T08:30:36;97625.97;;;18.54;55.72
33163;BME280;29282;45.656;11.302;2023-04-25T08:33:02;97636.94;;;18.54;55.96
33163;BME280;29282;45.656;11.302;2023-04-25T08:35:28;97629.06;;;18.52;55.98
33163;BME280;29282;45.656;11.302;2023-04-25T08:37:53;97632.59;;;18.53;55.86
33163;BME280;29282;45.656;11.302;2023-04-25T08:40:22;97629.06;;;18.52;55.93
33163;BME280;29282;45.656;11.302;2023-04-25T08:42:52;97634.91;;;18.51;56.12
33163;BME280;29282;45.656;11.302;2023-04-25T08:45:18;97634.91;;;18.51;56.13
33163;BME280;29282;45.656;11.302;2023-04-25T08:47:45;97637.28;;;18.52;55.97
33163;BME280;29282;45.656;11.302;2023-04-25T08:50:11;97634.19;;;18.54;56.15
33163;BME280;29282;45.656;11.302;2023-04-25T08:52:43;97635.34;;;18.53;56.00
33163;BME280;29282;45.656;11.302;2023-04-25T08:55:09;97641.28;;;18.55;55.96
33163;BME280;29282;45.656;11.302;2023-04-25T08:57:35;97644.38;;;18.53;55.89
33163;BME280;29282;45.656;11.302;2023-04-25T09:00:01;97638.88;;;18.53;56.06
33163;BME280;29282;45.656;11.302;2023-04-25T09:02:28;97638.88;;;18.53;56.01
33163;BME280;29282;45.656;11.302;2023-04-25T09:04:54;97631.81;;;18.52;56.00
33163;BME280;29282;45.656;11.302;2023-04-25T09:07:21;97636.50;;;18.52;55.97
33163;BME280;29282;45.656;11.302;2023-04-25T09:09:47;97647.09;;;18.53;55.90
33163;BME280;29282;45.656;11.302;2023-04-25T09:12:13;97645.16;;;18.54;55.95
33163;BME280;29282;45.656;11.302;2023-04-25T09:14:38;97649.84;;;18.53;55.88
33163;BME280;29282;45.656;11.302;2023-04-25T09:17:04;97647.09;;;18.53;55.97
33163;BME280;29282;45.656;11.302;2023-04-25T09:19:34;97646.78;;;18.55;55.83
33163;BME280;29282;45.656;11.302;2023-04-25T09:22:03;97652.25;;;18.55;56.16
33163;BME280;29282;45.656;11.302;2023-04-25T09:24:40;97664.03;;;18.55;56.08
33163;BME280;29282;45.656;11.302;2023-04-25T09:27:08;97664.03;;;18.55;56.02
33163;BME280;29282;45.656;11.302;2023-04-25T09:29:36;97667.56;;;18.56;56.12
33163;BME280;29282;45.656;11.302;2023-04-25T09:32:21;97676.16;;;18.54;56.34
33163;BME280;29282;45.656;11.302;2023-04-25T09:34:55;97662.06;;;18.56;56.15
33163;BME280;29282;45.656;11.302;2023-04-25T09:37:30;97664.81;;;18.56;56.17
33163;BME280;29282;45.656;11.302;2023-04-25T09:40:00;97656.13;;;18.54;56.08
33163;BME280;29282;45.656;11.302;2023-04-25T09:42:28;97664.03;;;18.55;56.04
33163;BME280;29282;45.656;11.302;2023-04-25T09:44:57;97661.63;;;18.54;56.08
33163;BME280;29282;45.656;11.302;2023-04-25T09:47:25;97655.69;;;18.52;55.97
33163;BME280;29282;45.656;11.302;2023-04-25T09:49:52;97659.84;;;18.46;56.39
33163;BME280;29282;45.656;11.302;2023-04-25T09:52:27;97664.88;;;18.44;55.70
33163;BME280;29282;45.656;11.302;2023-04-25T09:54:53;97665.13;;;18.39;55.56
33163;BME280;29282;45.656;11.302;2023-04-25T09:57:22;97659.66;;;18.39;55.10
33163;BME280;29282;45.656;11.302;2023-04-25T09:59:51;97658.50;;;18.40;54.13
33163;BME280;29282;45.656;11.302;2023-04-25T10:02:19;97656.22;;;18.42;53.90
33163;BME280;29282;45.656;11.302;2023-04-25T10:04:48;97658.59;;;18.43;53.22
33163;BME280;29282;45.656;11.302;2023-04-25T10:07:14;97655.50;;;18.45;53.18
33163;BME280;29282;45.656;11.302;2023-04-25T10:09:39;97668.06;;;18.46;53.60
33163;BME280;29282;45.656;11.302;2023-04-25T10:12:06;97666.13;;;18.46;53.36
33163;BME280;29282;45.656;11.302;2023-04-25T10:14:33;97668.44;;;18.44;53.58
33163;BME280;29282;45.656;11.302;2023-04-25T10:16:59;97663.28;;;18.43;53.36
33163;BME280;29282;45.656;11.302;2023-04-25T10:19:26;97673.16;;;18.31;51.47
33163;BME280;29282;45.656;11.302;2023-04-25T10:22:04;97667.22;;;17.89;51.88
33163;BME280;29282;45.656;11.302;2023-04-25T10:24:31;97674.84;;;18.08;51.61
33163;BME280;29282;45.656;11.302;2023-04-25T10:26:58;97653.22;;;18.19;51.61
33163;BME280;29282;45.656;11.302;2023-04-25T10:29:26;97650.56;;;18.22;51.05
33163;BME280;29282;45.656;11.302;2023-04-25T10:31:52;97653.41;;;18.26;51.38
33163;BME280;29282;45.656;11.302;2023-04-25T10:34:19;97641.28;;;18.27;50.69
33163;BME280;29282;45.656;11.302;2023-04-25T10:36:52;97648.81;;;18.30;50.63
33163;BME280;29282;45.656;11.302;2023-04-25T10:39:25;97650.88;;;18.33;50.09
33163;BME280;29282;45.656;11.302;2023-04-25T10:41:56;97659.09;;;18.33;50.56
33163;BME280;29282;45.656;11.302;2023-04-25T10:44:26;97656.56;;;18.00;49.26
33163;BME280;29282;45.656;11.302;2023-04-25T10:46:58;97672.56;;;17.98;49.56
33163;BME280;29282;45.656;11.302;2023-04-25T10:49:42;97649.94;;;18.01;49.14
33163;BME280;29282;45.656;11.302;2023-04-25T10:52:26;97662.63;;;18.05;48.85
33163;BME280;29282;45.656;11.302;2023-04-25T10:54:53;97663.88;;;18.08;49.57
33163;BME280;29282;45.656;11.302;2023-04-25T10:57:44;97685.22;;;18.15;49.48
33163;BME280;29282;45.656;11.302;2023-04-25T11:00:18;97671.84;;;18.13;48.80
33163;BME280;29282;45.656;11.302;2023-04-25T11:02:52;97663.72;;;18.17;49.40
33163;BME280;29282;45.656;11.302;2023-04-25T11:07:50;97661.97;;;18.24;49.76
33163;BME280;29282;45.656;11.302;2023-04-25T11:10:17;97653.06;;;18.27;49.47
33163;BME280;29282;45.656;11.302;2023-04-25T11:12:45;97649.50;;;18.27;49.93
33163;BME280;29282;45.656;11.302;2023-04-25T11:15:11;97642.53;;;18.29;49.80
33163;BME280;29282;45.656;11.302;2023-04-25T11:17:36;97648.81;;;18.30;50.04
33163;BME280;29282;45.656;11.302;2023-04-25T11:20:02;97632.72;;;18.28;50.34
33163;BME280;29282;45.656;11.302;2023-04-25T11:22:33;97640.59;;;18.30;50.19
33163;BME280;29282;45.656;11.302;2023-04-25T11:25:04;97628.50;;;18.31;50.04
33163;BME280;29282;45.656;11.302;2023-04-25T11:27:30;97631.25;;;18.31;50.10
33163;BME280;29282;45.656;11.302;2023-04-25T11:29:55;97638.31;;;18.32;50.38
33163;BME280;29282;45.656;11.302;2023-04-25T11:32:21;97648.47;;;18.31;50.55
33163;BME280;29282;45.656;11.302;2023-04-25T11:34:47;97648.13;;;18.33;50.59
33163;BME280;29282;45.656;11.302;2023-04-25T11:37:12;97653.28;;;18.35;50.62
33163;BME280;29282;45.656;11.302;2023-04-25T11:39:43;97646.53;;;18.32;50.70
33163;BME280;29282;45.656;11.302;2023-04-25T11:42:08;97655.56;;;18.33;50.84
33163;BME280;29282;45.656;11.302;2023-04-25T11:44:34;97652.81;;;18.33;50.95
33163;BME280;29282;45.656;11.302;2023-04-25T11:47:00;97657.13;;;18.34;50.68
33163;BME280;29282;45.656;11.302;2023-04-25T11:49:30;97650.88;;;18.33;50.98
33163;BME280;29282;45.656;11.302;2023-04-25T11:51:55;97648.13;;;18.33;50.97
33163;BME280;29282;45.656;11.302;2023-04-25T11:54:22;97645.38;;;18.33;51.23
33163;BME280;29282;45.656;11.302;2023-04-25T11:56:48;97654.41;;;18.34;50.92
33163;BME280;29282;45.656;11.302;2023-04-25T11:59:13;97651.66;;;18.34;51.21
33163;BME280;29282;45.656;11.302;2023-04-25T12:01:48;97650.53;;;18.35;51.21
33163;BME280;29282;45.656;11.302;2023-04-25T12:04:16;97661.94;;;18.37;51.09
33163;BME280;29282;45.656;11.302;2023-04-25T12:06:44;97668.13;;;18.34;51.16
33163;BME280;29282;45.656;11.302;2023-04-25T12:09:12;97674.38;;;18.34;51.16
33163;BME280;29282;45.656;11.302;2023-04-25T12:12:01;97672.09;;;18.36;51.46
33163;BME280;29282;45.656;11.302;2023-04-25T12:14:33;97673.25;;;18.35;51.43
33163;BME280;29282;45.656;11.302;2023-04-25T12:17:00;97675.22;;;18.35;51.38
33163;BME280;29282;45.656;11.302;2023-04-25T12:19:31;97677.13;;;18.34;51.39
33163;BME280;29282;45.656;11.302;2023-04-25T12:22:00;97680.34;;;18.36;51.18
33163;BME280;29282;45.656;11.302;2023-04-25T12:24:27;97678.75;;;18.35;51.41
33163;BME280;29282;45.656;11.302;2023-04-25T12:26:58;97676.81;;;18.36;51.60
33163;BME280;29282;45.656;11.302;2023-04-25T12:29:25;97665.81;;;18.36;51.25
33163;BME280;29282;45.656;11.302;2023-04-25T12:31:52;97665.81;;;18.36;51.41
33163;BME280;29282;45.656;11.302;2023-04-25T12:34:19;97667.00;;;18.35;51.71
33163;BME280;29282;45.656;11.302;2023-04-25T12:36:45;97672.09;;;18.36;51.42
33163;BME280;29282;45.656;11.302;2023-04-25T12:39:19;97675.66;;;18.37;51.65
33163;BME280;29282;45.656;11.302;2023-04-25T12:41:45;97678.38;;;18.37;51.64
33163;BME280;29282;45.656;11.302;2023-04-25T12:44:12;97680.34;;;18.36;51.69
33163;BME280;29282;45.656;11.302;2023-04-25T12:46:37;97685.03;;;18.36;51.64
33163;BME280;29282;45.656;11.302;2023-04-25T12:49:04;97694.03;;;18.36;51.94
33163;BME280;29282;45.656;11.302;2023-04-25T12:51:30;97694.03;;;18.36;51.72